Time;durP1;ratioP1;P1;durP2;ratioP2;P2;SDS_P1;SDS_P2;PMS_P1;PMS_P2;Temp;Humidity;BMP_temperature;BMP_pressure;BME280_temperature;BME280_humidity;BME280_pressure;Samples;Min_cycle;Max_cycle;Signal;HPM_P1;HPM_P2
2022/10/18 00:02:05;;;;;;;10.90;4.40;;;;;;;18.93;61.19;98354.31;5055656;28;20263;-74
2022/10/18 00:04:31;;;;;;;12.10;4.70;;;;;;;18.90;60.84;98365.28;5053129;28;20213;-73
2022/10/18 00:06:56;;;;;;;5.70;3.80;;;;;;;18.86;61.15;98359.50;5052132;28;20209;-71
2022/10/18 00:09:22;;;;;;;10.83;4.20;;;;;;;18.84;61.22;98364.16;5052407;28;20675;-74
2022/10/18 00:11:48;;;;;;;8.23;4.00;;;;;;;18.83;61.29;98359.88;5052386;28;20183;-72
2022/10/18 00:14:13;;;;;;;10.70;4.40;;;;;;;18.84;61.53;98358.00;5051433;28;20182;-74
2022/10/18 00:16:39;;;;;;;8.40;4.27;;;;;;;18.82;61.36;98358.19;5046691;28;20356;-73
2022/10/18 00:19:04;;;;;;;8.70;4.10;;;;;;;18.83;61.57;98359.03;5052250;28;20618;-70
2022/10/18 00:21:30;;;;;;;7.83;4.40;;;;;;;18.86;61.70;98367.47;5046877;28;20332;-71
2022/10/18 00:23:55;;;;;;;9.00;4.50;;;;;;;18.86;61.81;98372.78;5055367;28;20257;-73
2022/10/18 00:26:21;;;;;;;9.70;4.00;;;;;;;18.90;61.65;98364.47;5050908;28;20215;-72
2022/10/18 00:28:51;;;;;;;10.83;4.10;;;;;;;18.89;61.48;98366.28;5051836;28;20568;-73
2022/10/18 00:31:24;;;;;;;5.50;3.93;;;;;;;18.92;61.27;98370.41;5051572;28;20513;-71
2022/10/18 00:33:54;;;;;;;8.37;4.07;;;;;;;18.92;61.15;98362.44;5052224;28;20479;-72
2022/10/18 00:36:20;;;;;;;4.97;4.50;;;;;;;18.83;61.53;98365.16;5051164;28;20828;-73
2022/10/18 00:38:46;;;;;;;9.57;4.40;;;;;;;18.79;61.51;98361.22;5051608;28;20459;-72
2022/10/18 00:41:17;;;;;;;9.30;4.07;;;;;;;18.80;61.32;98362.06;5056338;28;20267;-72
2022/10/18 00:43:56;;;;;;;9.23;4.60;;;;;;;18.77;61.85;98359.75;5052247;28;20471;-72
2022/10/18 00:46:23;;;;;;;6.07;4.13;;;;;;;18.79;61.75;98369.19;5049308;28;20454;-71
2022/10/18 00:48:48;;;;;;;11.17;4.83;;;;;;;18.79;61.71;98363.06;5060714;28;20431;-71
2022/10/18 00:51:16;;;;;;;10.00;4.70;;;;;;;18.80;61.89;98354.91;5049252;28;21017;-70
2022/10/18 00:53:41;;;;;;;14.87;4.40;;;;;;;18.76;61.73;98363.41;5050760;28;20669;-71
2022/10/18 00:56:07;;;;;;;6.67;4.40;;;;;;;18.79;61.61;98363.06;5051463;28;20429;-72
2022/10/18 00:58:33;;;;;;;9.70;4.03;;;;;;;18.79;61.52;98369.19;5051318;28;20199;-71
2022/10/18 01:00:58;;;;;;;7.30;4.60;;;;;;;18.77;61.46;98363.25;5052892;28;20183;-72
2022/10/18 01:03:24;;;;;;;7.43;3.90;;;;;;;18.72;61.88;98363.75;5051497;28;20665;-72
2022/10/18 01:05:49;;;;;;;10.20;4.07;;;;;;;18.74;62.08;98360.94;5050134;28;20587;-71
2022/10/18 01:08:56;;;;;;;8.20;4.63;;;;;;;18.72;62.05;98370.91;5050768;28;20264;-72
2022/10/18 01:11:40;;;;;;;11.43;3.90;;;;;;;18.68;62.02;98365.13;5040036;28;20209;-73
2022/10/18 01:14:40;;;;;;;7.53;4.00;;;;;;;18.70;62.34;98364.94;5047968;28;20472;-72
2022/10/18 01:17:27;;;;;;;5.60;4.10;;;;;;;18.67;62.25;98359.97;5046985;28;20445;-73
2022/10/18 01:19:59;;;;;;;7.73;4.27;;;;;;;18.68;62.53;98353.66;5049823;28;20464;-73
2022/10/18 01:22:58;;;;;;;8.80;4.27;;;;;;;18.66;62.45;98350.34;5049638;28;20910;-73
2022/10/18 01:25:36;;;;;;;10.70;4.50;;;;;;;18.67;62.52;98350.19;5032978;28;20434;-72
2022/10/18 01:28:32;;;;;;;9.03;4.00;;;;;;;18.67;62.31;98349.34;5050418;28;20532;-71
2022/10/18 01:31:00;;;;;;;5.50;3.73;;;;;;;18.70;62.46;98349.00;5046846;28;20429;-73
2022/10/18 01:33:52;;;;;;;10.27;4.27;;;;;;;18.68;62.51;98351.84;5049616;28;20929;-72
2022/10/18 01:36:20;;;;;;;13.33;4.53;;;;;;;18.72;62.40;98347.00;5044568;28;20496;-72
2022/10/18 01:38:47;;;;;;;7.07;4.13;;;;;;;18.68;62.69;98351.00;5050771;28;20496;-73
2022/10/18 01:41:13;;;;;;;9.37;4.33;;;;;;;18.70;62.74;98349.00;5042469;28;20522;-72
2022/10/18 01:43:39;;;;;;;5.50;3.90;;;;;;;18.74;62.93;98355.63;5035306;28;20496;-72
2022/10/18 01:46:06;;;;;;;6.10;4.40;;;;;;;18.77;63.00;98349.97;5046005;28;20468;-72
2022/10/18 01:48:32;;;;;;;9.80;4.90;;;;;;;18.80;62.86;98352.25;5034196;28;20486;-73
2022/10/18 01:50:58;;;;;;;15.93;4.63;;;;;;;18.83;62.77;98353.75;5058208;28;20425;-73
2022/10/18 01:53:31;;;;;;;6.63;4.03;;;;;;;18.85;62.83;98344.56;5046977;28;20274;-73
2022/10/18 01:56:17;;;;;;;7.60;4.57;;;;;;;18.86;62.83;98354.19;5047752;28;20203;-72
2022/10/18 01:58:53;;;;;;;5.83;3.60;;;;;;;18.88;62.80;98351.34;5042532;28;20476;-73
2022/10/18 02:01:34;;;;;;;12.47;4.80;;;;;;;18.91;62.68;98353.66;5050560;28;20440;-72
2022/10/18 02:04:06;;;;;;;6.10;3.90;;;;;;;18.88;62.82;98349.53;5050706;28;20429;-73
2022/10/18 02:06:38;;;;;;;10.67;4.33;;;;;;;18.82;63.31;98350.25;5046193;28;21031;-76
2022/10/18 02:09:09;;;;;;;9.33;4.50;;;;;;;18.81;63.37;98356.56;5044179;28;20432;-71
2022/10/18 02:11:36;;;;;;;7.33;3.73;;;;;;;18.81;63.45;98345.94;5049277;28;20421;-72
2022/10/18 02:14:08;;;;;;;12.00;4.30;;;;;;;18.84;63.47;98347.38;5048659;28;20949;-72
2022/10/18 02:16:38;;;;;;;6.27;4.07;;;;;;;18.87;63.48;98347.03;5048181;28;20445;-72
2022/10/18 02:19:09;;;;;;;7.90;5.00;;;;;;;18.87;63.30;98345.22;5050668;28;20457;-73
2022/10/18 02:21:37;;;;;;;10.70;5.13;;;;;;;18.88;63.29;98351.34;5044923;28;20422;-74
2022/10/18 02:24:04;;;;;;;7.67;4.60;;;;;;;18.87;63.27;98347.88;5049494;28;20421;-72
2022/10/18 02:26:30;;;;;;;17.20;4.50;;;;;;;18.86;63.21;98351.53;5048984;28;20445;-72
2022/10/18 02:28:55;;;;;;;7.87;4.20;;;;;;;18.84;63.61;98348.22;5048910;28;20429;-73
2022/10/18 02:31:29;;;;;;;9.93;5.90;;;;;;;18.84;63.73;98350.03;5051229;28;20654;-71
2022/10/18 02:33:58;;;;;;;11.37;4.30;;;;;;;18.86;63.69;98346.22;5048936;28;20198;-71
2022/10/18 02:36:27;;;;;;;9.00;4.90;;;;;;;18.86;63.69;98348.88;5047382;28;20985;-72
2022/10/18 02:38:56;;;;;;;9.63;4.60;;;;;;;18.87;63.76;98342.56;5045152;28;20605;-72
2022/10/18 02:41:25;;;;;;;8.63;4.13;;;;;;;18.89;63.63;98337.06;5048662;28;20473;-73
2022/10/18 02:43:51;;;;;;;8.73;4.10;;;;;;;18.93;63.58;98333.06;5050224;28;21146;-73
2022/10/18 02:46:17;;;;;;;10.87;5.10;;;;;;;18.93;63.71;98335.72;5049418;28;20449;-73
2022/10/18 02:48:42;;;;;;;7.07;4.17;;;;;;;18.87;63.85;98334.59;5049759;28;20187;-73
2022/10/18 02:51:07;;;;;;;7.80;4.27;;;;;;;18.85;64.01;98333.94;5048750;28;20243;-72
2022/10/18 02:53:33;;;;;;;8.43;4.00;;;;;;;18.86;64.12;98340.06;5050309;28;20179;-73
2022/10/18 02:55:58;;;;;;;7.57;4.40;;;;;;;18.90;64.01;98335.25;5044865;28;20203;-72
2022/10/18 02:58:24;;;;;;;10.73;4.80;;;;;;;18.90;64.18;98332.59;5047704;28;20191;-73
2022/10/18 03:00:49;;;;;;;8.17;4.23;;;;;;;18.91;64.07;98335.06;5044705;28;20266;-74
2022/10/18 03:03:15;;;;;;;6.03;3.70;;;;;;;18.88;64.14;98336.25;5049968;28;20244;-73
2022/10/18 03:05:40;;;;;;;6.20;4.10;;;;;;;18.87;64.22;98331.94;5049603;28;20191;-71
2022/10/18 03:08:06;;;;;;;25.30;4.53;;;;;;;18.85;64.23;98331.31;5039073;28;20225;-73
2022/10/18 03:10:31;;;;;;;7.10;3.73;;;;;;;18.90;64.25;98328.09;5041011;28;20175;-73
2022/10/18 03:12:57;;;;;;;9.00;4.90;;;;;;;18.95;63.81;98340.88;5040282;28;20298;-73
2022/10/18 03:15:22;;;;;;;5.83;4.00;;;;;;;18.98;63.38;98335.22;5050869;28;20214;-71
2022/10/18 03:17:48;;;;;;;11.53;3.80;;;;;;;19.00;63.32;98338.53;5050630;28;20203;-72
2022/10/18 03:20:13;;;;;;;10.40;3.80;;;;;;;19.00;62.72;98334.03;5059818;28;20218;-73
2022/10/18 03:22:39;;;;;;;7.23;3.70;;;;;;;18.99;62.70;98332.38;5058963;28;20191;-72
2022/10/18 03:25:04;;;;;;;13.17;3.73;;;;;;;19.01;62.88;98330.38;5050721;28;20183;-73
2022/10/18 03:27:29;;;;;;;5.20;3.80;;;;;;;19.05;62.20;98325.50;5064332;28;20705;-72
2022/10/18 03:29:55;;;;;;;8.43;3.53;;;;;;;19.08;62.19;98325.16;5064793;28;20206;-74
2022/10/18 03:32:20;;;;;;;8.67;3.67;;;;;;;19.09;62.01;98321.50;5072762;28;20560;-71
2022/10/18 03:34:46;;;;;;;3.77;3.47;;;;;;;19.11;61.93;98318.66;5059629;28;20207;-72
2022/10/18 03:37:11;;;;;;;11.50;3.77;;;;;;;19.12;62.26;98322.97;5061835;28;20211;-73
2022/10/18 03:39:37;;;;;;;5.07;4.20;;;;;;;19.10;62.38;98320.50;5064400;28;20258;-73
2022/10/18 03:42:02;;;;;;;5.83;3.40;;;;;;;19.10;62.73;98317.00;5057855;28;20230;-72
2022/10/18 03:44:28;;;;;;;4.87;3.80;;;;;;;19.07;62.67;98318.19;5060397;28;20655;-72
2022/10/18 03:46:53;;;;;;;10.50;3.83;;;;;;;19.08;62.69;98311.06;5054282;28;20213;-72
2022/10/18 03:49:18;;;;;;;10.07;4.03;;;;;;;19.06;62.73;98316.53;5064112;28;20222;-72
2022/10/18 03:51:44;;;;;;;7.60;4.10;;;;;;;19.04;62.79;98313.22;5069831;28;20213;-71
2022/10/18 03:54:09;;;;;;;8.50;4.37;;;;;;;19.01;62.84;98322.41;5054832;28;20206;-73
2022/10/18 03:56:35;;;;;;;6.03;3.80;;;;;;;18.99;62.90;98321.75;5049118;28;20277;-72
2022/10/18 03:59:01;;;;;;;4.50;3.80;;;;;;;19.01;62.72;98329.56;5044322;28;20834;-72
2022/10/18 04:01:26;;;;;;;5.67;4.40;;;;;;;19.01;62.53;98329.56;5055402;28;20213;-72
2022/10/18 04:03:52;;;;;;;9.83;4.07;;;;;;;18.97;62.58;98334.38;5046780;28;20517;-71
2022/10/18 04:06:17;;;;;;;16.90;3.43;;;;;;;18.97;61.94;98323.75;5053910;28;20232;-71
2022/10/18 04:08:43;;;;;;;20.03;3.70;;;;;;;18.92;61.67;98325.25;5065895;28;20320;-72
2022/10/18 04:11:09;;;;;;;7.13;3.27;;;;;;;18.90;61.64;98322.78;5052950;28;20742;-72
2022/10/18 04:13:35;;;;;;;4.23;3.20;;;;;;;18.91;61.43;98329.75;5048641;28;20273;-72
2022/10/18 04:16:01;;;;;;;8.00;4.03;;;;;;;18.93;61.62;98326.91;5050288;28;20525;-72
2022/10/18 04:18:26;;;;;;;7.73;3.33;;;;;;;18.92;61.27;98320.78;5023843;28;21456;-72
2022/10/18 04:20:51;;;;;;;8.97;3.30;;;;;;;18.91;61.30;98329.75;5050887;28;20188;-72
2022/10/18 04:23:17;;;;;;;7.70;3.70;;;;;;;18.94;61.19;98331.25;5044598;28;20703;-70
2022/10/18 04:25:42;;;;;;;6.70;3.60;;;;;;;18.91;60.81;98336.88;5036402;28;20624;-72
2022/10/18 04:28:08;;;;;;;6.77;3.70;;;;;;;18.92;60.81;98335.88;5037979;28;20253;-71
2022/10/18 04:30:33;;;;;;;6.87;3.43;;;;;;;18.96;60.69;98337.22;5047196;28;20178;-73
2022/10/18 04:32:59;;;;;;;5.60;3.90;;;;;;;18.99;60.79;98337.69;5047563;28;20226;-72
2022/10/18 04:35:24;;;;;;;6.57;3.60;;;;;;;19.06;60.80;98340.44;5039903;28;20194;-71
2022/10/18 04:37:50;;;;;;;5.77;3.60;;;;;;;19.11;60.39;98340.75;5044674;28;20218;-72
2022/10/18 04:40:16;;;;;;;11.63;3.50;;;;;;;19.16;60.16;98342.88;5044139;28;20219;-73
2022/10/18 04:42:41;;;;;;;3.90;3.30;;;;;;;19.19;59.85;98343.31;5039244;28;20184;-73
2022/10/18 04:45:07;;;;;;;8.27;3.30;;;;;;;19.28;59.65;98351.25;5036748;28;20667;-72
2022/10/18 04:47:33;;;;;;;3.10;2.80;;;;;;;19.34;59.35;98353.16;5040975;28;20202;-73
2022/10/18 04:49:58;;;;;;;4.93;3.30;;;;;;;19.39;59.23;98345.47;5035638;28;20229;-72
2022/10/18 04:52:24;;;;;;;4.27;3.40;;;;;;;19.45;58.79;98347.41;5040134;28;20973;-73
2022/10/18 04:54:49;;;;;;;3.63;3.33;;;;;;;19.48;58.50;98346.19;5035711;28;20601;-73
2022/10/18 04:57:15;;;;;;;5.53;3.17;;;;;;;19.55;58.38;98340.97;5038930;28;20218;-73
2022/10/18 04:59:40;;;;;;;8.63;3.77;;;;;;;19.59;58.26;98336.97;5041124;28;20298;-73
2022/10/18 05:02:05;;;;;;;5.67;3.50;;;;;;;19.64;57.97;98332.75;5032832;28;20180;-72
2022/10/18 05:04:31;;;;;;;5.53;3.80;;;;;;;19.70;57.97;98333.03;5038280;28;20705;-73
2022/10/18 05:06:56;;;;;;;3.83;3.30;;;;;;;19.76;57.67;98335.78;5032349;28;20218;-72
2022/10/18 05:09:23;;;;;;;8.10;4.20;;;;;;;19.82;57.63;98342.19;5028696;28;20195;-72
2022/10/18 05:11:49;;;;;;;9.03;4.13;;;;;;;19.88;57.63;98340.66;5033118;28;20188;-72
2022/10/18 05:14:15;;;;;;;4.40;3.63;;;;;;;19.91;57.55;98350.94;5036255;28;20970;-73
2022/10/18 05:16:40;;;;;;;4.90;3.30;;;;;;;19.93;57.47;98348.91;5035947;28;20210;-71
2022/10/18 05:19:05;;;;;;;6.40;3.73;;;;;;;19.93;57.59;98341.75;5029370;28;20231;-73
2022/10/18 05:21:32;;;;;;;6.50;2.93;;;;;;;19.94;57.63;98353.22;5034398;28;20207;-71
2022/10/18 05:23:57;;;;;;;5.63;3.60;;;;;;;19.92;57.39;98345.44;5031420;28;20192;-73
2022/10/18 05:26:22;;;;;;;5.10;3.67;;;;;;;19.92;57.22;98337.44;5032200;28;20503;-72
2022/10/18 05:28:49;;;;;;;5.87;3.67;;;;;;;19.93;57.40;98340.91;5034570;28;20179;-74
2022/10/18 05:31:14;;;;;;;8.03;3.33;;;;;;;19.94;57.21;98339.91;5035440;28;20183;-72
2022/10/18 05:33:40;;;;;;;6.90;3.80;;;;;;;19.93;57.09;98339.09;5032337;28;20929;-72
2022/10/18 05:36:06;;;;;;;4.03;3.57;;;;;;;19.93;57.20;98344.41;5036647;28;20241;-73
2022/10/18 05:38:31;;;;;;;7.87;3.40;;;;;;;19.94;57.11;98345.22;5032153;28;20265;-73
2022/10/18 05:40:57;;;;;;;6.40;3.37;;;;;;;19.97;57.00;98339.56;5036363;28;20200;-74
2022/10/18 05:43:27;;;;;;;6.70;3.30;;;;;;;19.98;57.19;98343.03;5038674;28;20223;-74
2022/10/18 05:45:52;;;;;;;9.60;3.30;;;;;;;20.02;57.58;98341.66;5038234;28;20461;-71
2022/10/18 05:48:18;;;;;;;3.10;2.90;;;;;;;20.03;57.29;98343.31;5034365;28;20523;-72
2022/10/18 05:50:43;;;;;;;4.97;3.17;;;;;;;20.04;56.79;98343.09;5034807;28;20280;-72
2022/10/18 05:53:09;;;;;;;9.83;3.23;;;;;;;20.02;56.97;98352.28;5037163;28;20194;-72
2022/10/18 05:55:34;;;;;;;13.83;4.40;;;;;;;20.01;56.80;98345.31;5037159;28;20772;-72
2022/10/18 05:58:00;;;;;;;8.70;3.73;;;;;;;20.00;56.78;98341.84;5038388;28;20219;-71
2022/10/18 06:00:26;;;;;;;5.87;3.90;;;;;;;20.02;56.68;98354.97;5032021;28;20298;-72
2022/10/18 06:02:51;;;;;;;5.13;3.77;;;;;;;20.00;56.79;98349.84;5040145;28;20202;-72
2022/10/18 06:05:17;;;;;;;4.53;3.07;;;;;;;20.00;56.95;98341.00;5045127;28;20198;-72
2022/10/18 06:07:42;;;;;;;5.20;3.80;;;;;;;19.99;57.00;98342.84;5036598;28;20206;-72
2022/10/18 06:10:08;;;;;;;4.70;3.40;;;;;;;19.96;56.71;98343.22;5037195;28;20187;-72
2022/10/18 06:12:33;;;;;;;5.20;4.07;;;;;;;19.92;57.02;98337.44;5028054;28;20199;-72
2022/10/18 06:14:59;;;;;;;3.67;3.33;;;;;;;19.96;56.94;98345.88;5046266;28;20278;-71
2022/10/18 06:17:24;;;;;;;9.83;3.50;;;;;;;19.99;56.73;98347.34;5036411;28;20220;-72
2022/10/18 06:19:50;;;;;;;4.03;3.37;;;;;;;19.98;56.96;98349.19;5038691;28;20218;-71
2022/10/18 06:22:15;;;;;;;5.03;3.50;;;;;;;20.03;56.93;98352.13;5040313;28;20176;-72
2022/10/18 06:24:41;;;;;;;10.17;4.13;;;;;;;20.06;56.72;98351.72;5043756;28;20214;-72
2022/10/18 06:27:09;;;;;;;8.20;3.90;;;;;;;20.12;56.73;98344.84;5040558;28;20234;-73
2022/10/18 06:29:35;;;;;;;7.23;3.57;;;;;;;20.21;56.71;98356.22;5037400;28;20637;-72
2022/10/18 06:32:00;;;;;;;6.00;3.93;;;;;;;20.31;56.54;98345.28;5046454;28;20502;-73
2022/10/18 06:34:26;;;;;;;5.40;3.30;;;;;;;20.44;56.30;98355.25;5034265;28;20514;-73
2022/10/18 06:36:51;;;;;;;4.80;3.30;;;;;;;20.51;56.01;98348.97;5039736;28;20199;-73
2022/10/18 06:39:17;;;;;;;7.47;3.70;;;;;;;20.60;55.82;98355.00;5035835;28;20643;-73
2022/10/18 06:41:42;;;;;;;6.40;3.50;;;;;;;20.65;55.54;98351.78;5045665;28;20267;-72
2022/10/18 06:44:12;;;;;;;7.80;3.40;;;;;;;20.69;55.34;98364.53;5036762;28;20265;-72
2022/10/18 06:46:39;;;;;;;7.63;3.43;;;;;;;20.72;55.30;98366.81;5029727;28;20257;-72
2022/10/18 06:49:05;;;;;;;6.70;3.20;;;;;;;20.73;55.33;98364.97;5029603;28;20414;-72
2022/10/18 06:51:30;;;;;;;4.77;3.30;;;;;;;20.71;54.99;98359.84;5029979;28;20931;-72
2022/10/18 06:53:56;;;;;;;14.77;3.57;;;;;;;20.77;55.22;98366.28;5034147;28;20171;-73
2022/10/18 06:56:21;;;;;;;5.00;3.20;;;;;;;20.80;54.99;98368.56;5029012;28;20306;-71
2022/10/18 06:58:47;;;;;;;4.53;3.37;;;;;;;20.83;54.94;98370.00;5031794;28;20624;-72
2022/10/18 07:01:14;;;;;;;9.50;3.40;;;;;;;20.82;55.01;98368.38;5041819;28;20270;-70
2022/10/18 07:03:40;;;;;;;7.77;3.40;;;;;;;20.83;55.01;98359.38;5044910;28;20670;-71
2022/10/18 07:06:08;;;;;;;12.97;3.17;;;;;;;20.83;55.05;98365.53;5038990;28;20442;-72
2022/10/18 07:08:34;;;;;;;6.93;3.30;;;;;;;20.85;55.12;98368.00;5045113;28;20187;-72
2022/10/18 07:11:00;;;;;;;4.63;2.80;;;;;;;20.87;55.20;98369.44;5056172;28;20433;-71
2022/10/18 07:13:29;;;;;;;4.13;3.00;;;;;;;20.88;54.82;98362.28;5038342;28;20606;-71
2022/10/18 07:16:05;;;;;;;7.30;3.40;;;;;;;20.89;54.87;98363.94;5038763;28;20195;-71
2022/10/18 07:18:35;;;;;;;5.37;3.67;;;;;;;20.91;54.90;98372.56;5035651;28;20995;-70
2022/10/18 07:21:02;;;;;;;5.40;3.17;;;;;;;20.93;54.92;98369.72;5044566;28;20436;-70
2022/10/18 07:23:27;;;;;;;5.47;3.50;;;;;;;20.92;55.01;98373.38;5038149;28;20429;-72
2022/10/18 07:25:53;;;;;;;3.73;3.20;;;;;;;20.91;55.10;98377.91;5042973;28;20424;-72
2022/10/18 07:28:18;;;;;;;3.93;3.20;;;;;;;20.95;54.95;98373.81;5038882;28;20886;-73
2022/10/18 07:30:44;;;;;;;5.60;3.13;;;;;;;20.97;54.90;98385.13;5049197;28;20945;-72
2022/10/18 07:33:09;;;;;;;7.83;3.50;;;;;;;21.01;54.82;98372.22;5039287;28;20661;-72
2022/10/18 07:35:35;;;;;;;9.43;3.37;;;;;;;21.06;54.97;98369.00;5042986;28;20191;-72
2022/10/18 07:38:00;;;;;;;7.10;3.40;;;;;;;21.09;54.85;98377.44;5037137;28;20286;-72
2022/10/18 07:40:25;;;;;;;7.10;3.20;;;;;;;21.09;54.54;98377.44;5045317;28;20298;-73
2022/10/18 07:42:51;;;;;;;4.33;3.53;;;;;;;21.15;54.45;98378.53;5048988;28;20190;-71
2022/10/18 07:45:16;;;;;;;4.47;4.00;;;;;;;21.22;54.40;98379.38;5045273;28;20184;-72
2022/10/18 07:47:42;;;;;;;5.50;3.73;;;;;;;21.26;54.54;98380.66;5047183;28;20229;-72
2022/10/18 07:50:07;;;;;;;5.40;3.23;;;;;;;21.29;54.55;98382.94;5042182;28;20267;-73
2022/10/18 07:52:33;;;;;;;5.70;3.50;;;;;;;21.36;54.30;98379.50;5047330;28;20187;-73
2022/10/18 07:54:58;;;;;;;7.10;3.03;;;;;;;21.42;54.40;98389.41;5043798;28;20175;-72
2022/10/18 07:57:24;;;;;;;4.90;3.30;;;;;;;21.47;54.00;98381.63;5045927;28;20289;-72
2022/10/18 07:59:55;;;;;;;10.83;3.40;;;;;;;21.53;54.19;98386.19;5044693;28;20211;-72
2022/10/18 08:02:21;;;;;;;6.03;3.37;;;;;;;21.61;54.21;98387.94;5038360;28;20257;-73
2022/10/18 08:04:47;;;;;;;6.77;3.30;;;;;;;21.69;53.82;98384.25;5044982;28;20520;-73
2022/10/18 08:07:12;;;;;;;4.97;3.10;;;;;;;21.75;54.04;98392.31;5036882;28;22436;-72
2022/10/18 08:09:38;;;;;;;4.50;3.63;;;;;;;21.82;54.27;98394.22;5041968;28;20179;-72
2022/10/18 08:12:03;;;;;;;5.90;3.10;;;;;;;21.87;53.79;98399.75;5035839;28;20187;-71
2022/10/18 08:14:29;;;;;;;8.23;3.83;;;;;;;21.90;53.80;98402.88;5053126;28;20193;-72
2022/10/18 08:16:54;;;;;;;3.70;3.40;;;;;;;21.93;53.41;98402.47;5039965;28;20230;-72
2022/10/18 08:19:20;;;;;;;2.80;2.60;;;;;;;21.97;53.56;98402.94;5040150;28;20587;-72
2022/10/18 08:21:45;;;;;;;12.73;3.30;;;;;;;21.99;53.12;98406.19;5044364;28;20316;-72
2022/10/18 08:24:11;;;;;;;4.00;3.33;;;;;;;22.01;53.19;98401.50;5034821;28;20190;-71
2022/10/18 08:26:36;;;;;;;7.83;3.70;;;;;;;22.02;53.10;98405.81;5047471;28;20207;-73
2022/10/18 08:29:02;;;;;;;6.27;3.30;;;;;;;22.09;53.12;98411.19;5034700;28;20203;-72
2022/10/18 08:31:27;;;;;;;5.40;3.53;;;;;;;22.11;52.92;98411.81;5050403;28;20225;-72
2022/10/18 08:33:55;;;;;;;7.10;3.63;;;;;;;22.15;52.97;98421.09;5035427;28;20191;-72
2022/10/18 08:36:20;;;;;;;7.00;3.13;;;;;;;22.19;53.09;98425.00;5039307;28;20295;-72
2022/10/18 08:38:45;;;;;;;7.63;3.50;;;;;;;22.24;52.89;98414.56;5037671;28;21008;-73
2022/10/18 08:41:13;;;;;;;7.40;3.70;;;;;;;22.32;52.80;98412.72;5044549;28;20186;-72
2022/10/18 08:43:55;;;;;;;7.47;3.77;;;;;;;22.39;52.61;98421.59;5038770;28;20275;-72
2022/10/18 08:46:20;;;;;;;10.03;3.80;;;;;;;22.45;52.35;98420.00;5042587;28;20453;-72
2022/10/18 08:48:47;;;;;;;6.27;3.50;;;;;;;22.52;52.25;98426.19;5041437;28;20506;-73
2022/10/18 08:51:33;;;;;;;4.80;3.70;;;;;;;22.55;51.84;98421.28;5045780;28;20183;-72
2022/10/18 08:54:05;;;;;;;7.00;3.53;;;;;;;22.67;51.84;98415.38;5040815;28;20430;-71
2022/10/18 08:56:31;;;;;;;5.93;3.43;;;;;;;22.81;51.76;98410.88;5040705;28;20437;-73
2022/10/18 08:58:57;;;;;;;3.90;3.23;;;;;;;23.30;51.42;98422.28;5057899;28;20498;-72
2022/10/18 09:01:35;;;;;;;9.07;3.60;;;;;;;23.60;49.84;98417.34;5043606;28;20430;-72
2022/10/18 09:04:23;;;;;;;6.33;3.13;;;;;;;23.82;49.72;98413.63;5040607;28;20709;-72
2022/10/18 09:07:08;;;;;;;13.40;3.43;;;;;;;24.25;48.78;98406.94;5033382;28;21140;-73
2022/10/18 09:10:29;;;;;;;8.67;3.70;;;;;;;24.80;48.39;98409.19;5035332;28;20453;-73
2022/10/18 09:13:06;;;;;;;20.80;3.67;;;;;;;25.38;47.29;98416.19;4997749;28;20871;-73
2022/10/18 09:15:50;;;;;;;5.47;3.37;;;;;;;25.96;45.15;98413.44;5044993;28;20432;-73
2022/10/18 09:18:41;;;;;;;9.70;2.87;;;;;;;26.17;43.66;98418.38;5034168;28;20415;-73
2022/10/18 09:21:25;;;;;;;8.00;3.30;;;;;;;26.58;43.25;98420.56;5040894;28;20844;-72
2022/10/18 09:24:27;;;;;;;12.13;3.70;;;;;;;27.06;42.60;98417.03;5032536;28;20771;-73
2022/10/18 09:26:57;;;;;;;8.10;6.33;;;;;;;27.51;41.87;98414.88;5037335;28;20445;-73
2022/10/18 09:29:28;;;;;;;7.30;3.67;;;;;;;27.79;40.14;98411.47;5035453;28;20422;-71
2022/10/18 09:32:29;;;;;;;9.40;3.10;;;;;;;28.12;39.77;98411.94;5044014;28;20438;-72
2022/10/18 09:35:11;;;;;;;8.70;4.67;;;;;;;28.50;38.90;98413.25;5020060;28;20457;-72
2022/10/18 09:37:37;;;;;;;8.00;4.00;;;;;;;28.63;38.83;98409.47;5057592;28;20445;-74
2022/10/18 09:40:18;;;;;;;6.60;2.80;;;;;;;28.58;37.98;98412.03;5031059;28;21038;-71
2022/10/18 09:42:53;;;;;;;17.93;3.00;;;;;;;28.51;37.35;98412.19;5045730;28;20660;-71
2022/10/18 09:45:29;;;;;;;4.00;2.80;;;;;;;28.60;37.99;98415.31;5035012;28;20841;-73
2022/10/18 09:48:09;;;;;;;8.37;2.50;;;;;;;28.64;37.61;98420.00;5041590;28;20441;-73
2022/10/18 09:50:38;;;;;;;3.63;2.17;;;;;;;28.50;37.94;98418.63;5040023;28;20425;-72
2022/10/18 09:53:15;;;;;;;5.70;2.60;;;;;;;28.71;37.71;98421.75;5045669;28;20422;-72
2022/10/18 09:55:54;;;;;;;7.63;2.33;;;;;;;28.53;37.42;98420.84;5041765;28;20449;-73
2022/10/18 09:58:20;;;;;;;5.23;2.30;;;;;;;28.77;38.25;98418.09;5042084;28;20422;-73
2022/10/18 10:00:50;;;;;;;9.00;2.60;;;;;;;29.03;37.71;98418.53;5037917;28;20473;-73
2022/10/18 10:03:15;;;;;;;10.90;2.80;;;;;;;29.03;37.14;98421.25;5040993;28;20838;-73
2022/10/18 10:05:42;;;;;;;7.63;2.33;;;;;;;29.10;36.82;98425.44;5037721;28;20454;-73
2022/10/18 10:08:08;;;;;;;4.03;2.63;;;;;;;29.08;36.70;98429.44;5041397;28;20203;-74
2022/10/18 10:10:34;;;;;;;10.30;2.50;;;;;;;29.03;36.32;98424.78;5038667;28;20428;-73
2022/10/18 10:13:16;;;;;;;6.47;2.30;;;;;;;28.91;36.48;98440.22;5023300;28;20214;-74
2022/10/18 10:15:47;;;;;;;12.97;3.10;;;;;;;28.32;37.49;98431.25;5039638;28;20524;-73
2022/10/18 10:18:19;;;;;;;7.90;5.10;;;;;;;28.30;38.38;98427.13;5036080;28;20823;-73
2022/10/18 10:20:46;;;;;;;17.57;7.60;;;;;;;28.35;38.83;98425.34;5040219;28;20493;-73
2022/10/18 10:23:20;;;;;;;16.33;7.00;;;;;;;28.46;39.87;98423.69;5035288;28;20433;-73
2022/10/18 10:25:54;;;;;;;5.60;3.60;;;;;;;28.27;40.15;98425.75;5044378;28;20493;-73
2022/10/18 10:28:22;;;;;;;10.97;6.33;;;;;;;28.03;40.65;98428.44;5033571;28;20435;-73
2022/10/18 10:30:47;;;;;;;5.20;3.20;;;;;;;27.86;40.96;98428.34;5050391;28;20947;-73
2022/10/18 10:33:39;;;;;;;19.23;6.40;;;;;;;28.06;40.73;98432.53;5035206;28;20433;-73
2022/10/18 10:36:14;;;;;;;6.37;5.17;;;;;;;27.95;40.62;98433.38;5039932;28;20194;-72
2022/10/18 10:38:39;;;;;;;8.37;3.60;;;;;;;28.34;40.83;98426.44;5040261;28;20465;-73
2022/10/18 10:41:18;;;;;;;8.90;3.27;;;;;;;28.29;40.28;98437.09;5046868;28;20448;-73
2022/10/18 10:43:44;;;;;;;7.30;3.20;;;;;;;28.16;40.45;98426.59;5039032;28;20639;-72
2022/10/18 10:46:14;;;;;;;8.30;3.07;;;;;;;27.87;40.80;98429.16;5047594;28;20452;-73
2022/10/18 10:48:48;;;;;;;10.30;5.23;;;;;;;27.65;41.21;98423.56;5035368;28;20482;-73
2022/10/18 10:51:31;;;;;;;8.93;5.60;;;;;;;27.47;41.69;98436.06;5052036;28;20436;-73
2022/10/18 10:53:59;;;;;;;10.03;3.83;;;;;;;27.26;42.36;98432.88;5041942;28;20457;-73
2022/10/18 10:56:32;;;;;;;7.13;3.23;;;;;;;27.12;42.43;98431.44;5050584;28;20445;-73
2022/10/18 10:59:08;;;;;;;6.70;3.37;;;;;;;26.89;43.67;98437.53;5041276;28;20458;-73
2022/10/18 11:01:35;;;;;;;6.80;3.30;;;;;;;26.78;43.49;98436.41;5039139;28;20991;-72
2022/10/18 11:04:26;;;;;;;6.50;2.70;;;;;;;26.64;43.72;98436.63;5045213;28;20438;-72
2022/10/18 11:06:57;;;;;;;6.40;3.60;;;;;;;26.57;43.37;98435.06;5037288;28;20488;-74
2022/10/18 11:09:49;;;;;;;8.73;3.30;;;;;;;26.49;43.13;98431.63;5044997;28;20430;-73
2022/10/18 11:12:33;;;;;;;6.90;3.90;;;;;;;26.32;43.38;98419.88;5040178;28;20433;-73
2022/10/18 11:15:10;;;;;;;13.03;7.10;;;;;;;26.30;43.82;98425.44;5044344;28;20428;-72
2022/10/18 11:17:54;;;;;;;6.93;3.43;;;;;;;26.26;44.26;98421.59;5035222;28;20441;-72
2022/10/18 11:20:30;;;;;;;10.00;6.50;;;;;;;26.22;44.21;98415.81;5042020;28;20977;-72
2022/10/18 11:22:55;;;;;;;18.03;7.43;;;;;;;26.21;44.31;98416.84;5037214;28;20471;-73
2022/10/18 11:25:23;;;;;;;6.70;3.17;;;;;;;26.10;45.11;98422.97;5040262;28;20929;-72
2022/10/18 11:27:57;;;;;;;5.80;4.07;;;;;;;26.14;45.08;98413.44;5038421;28;20208;-74
2022/10/18 11:30:44;;;;;;;8.60;3.60;;;;;;;26.04;44.94;98405.88;5043014;28;20420;-72
2022/10/18 11:33:26;;;;;;;6.17;3.17;;;;;;;26.06;45.10;98411.84;5039295;28;20463;-74
2022/10/18 11:35:58;;;;;;;8.57;3.53;;;;;;;26.03;45.55;98416.84;5043375;28;20998;-72
2022/10/18 11:38:50;;;;;;;7.70;3.67;;;;;;;26.11;45.18;98424.63;5045446;28;20502;-73
2022/10/18 11:41:24;;;;;;;7.00;4.33;;;;;;;26.10;45.33;98416.78;5046578;28;20434;-73
2022/10/18 11:43:53;;;;;;;6.33;3.63;;;;;;;26.06;45.07;98421.78;5049410;28;20834;-73